Time;durP1;ratioP1;P1;durP2;ratioP2;P2;SDS_P1;SDS_P2;PMS_P1;PMS_P2;Temp;Humidity;BMP_temperature;BMP_pressure;BME280_temperature;BME280_humidity;BME280_pressure;Samples;Min_cycle;Max_cycle;Signal;HPM_P1;HPM_P2
2021/10/05 00:00:47;;;;;;;1.25;1.00;;;;;20.70;100251.00;;;;2095134;28;20307;-53
2021/10/05 00:01:48;;;;;;;1.10;0.90;;;;;20.70;100259.00;;;;2095518;28;20727;-54
2021/10/05 00:02:48;;;;;;;1.40;1.30;;;;;20.80;100261.00;;;;2095598;28;21392;-54
2021/10/05 00:03:49;;;;;;;1.10;1.00;;;;;20.70;100257.00;;;;2094992;28;20266;-54
2021/10/05 00:04:50;;;;;;;1.10;0.93;;;;;20.70;100253.00;;;;2094906;28;20211;-54
2021/10/05 00:05:50;;;;;;;0.97;0.87;;;;;20.70;100253.00;;;;2094523;28;20287;-54
2021/10/05 00:06:50;;;;;;;1.30;1.17;;;;;20.70;100246.00;;;;2089902;28;20455;-53
2021/10/05 00:07:51;;;;;;;1.77;1.23;;;;;20.70;100249.00;;;;2091112;28;20212;-54
2021/10/05 00:08:51;;;;;;;1.20;1.10;;;;;20.70;100253.00;;;;2089636;28;20244;-55
2021/10/05 00:09:51;;;;;;;1.03;0.93;;;;;20.70;100240.00;;;;2087135;28;20209;-54
2021/10/05 00:10:52;;;;;;;1.13;1.03;;;;;20.70;100244.00;;;;2087026;28;20209;-53
2021/10/05 00:11:52;;;;;;;1.10;0.90;;;;;20.70;100246.00;;;;2087401;28;20213;-54
2021/10/05 00:12:53;;;;;;;1.30;1.00;;;;;20.70;100240.00;;;;2086227;28;20771;-54
2021/10/05 00:13:53;;;;;;;1.37;1.20;;;;;20.70;100242.00;;;;2086945;28;20849;-54
2021/10/05 00:14:53;;;;;;;1.10;0.97;;;;;20.70;100240.00;;;;2087011;28;20232;-54
2021/10/05 00:15:54;;;;;;;1.10;1.00;;;;;20.60;100253.00;;;;2087532;28;20212;-54
2021/10/05 00:16:55;;;;;;;1.50;1.10;;;;;20.70;100244.00;;;;2087523;28;20224;-54
2021/10/05 00:17:55;;;;;;;1.20;1.10;;;;;20.70;100244.00;;;;2087620;28;20455;-54
2021/10/05 00:18:55;;;;;;;1.27;1.17;;;;;20.70;100242.00;;;;2087102;28;20626;-53
2021/10/05 00:19:56;;;;;;;1.40;1.07;;;;;20.70;100243.00;;;;2087620;28;20197;-55
2021/10/05 00:20:56;;;;;;;1.10;1.00;;;;;20.70;100236.00;;;;2087727;28;20212;-55
2021/10/05 00:21:57;;;;;;;1.10;1.00;;;;;20.70;100237.00;;;;2087435;28;20209;-54
2021/10/05 00:22:58;;;;;;;1.10;1.00;;;;;20.70;100244.00;;;;2087146;28;20208;-53
2021/10/05 00:23:59;;;;;;;1.00;0.85;;;;;20.70;100243.00;;;;2091937;28;20295;-54
2021/10/05 00:24:59;;;;;;;1.33;0.90;;;;;20.70;100243.00;;;;2095884;28;20673;-54
2021/10/05 00:25:59;;;;;;;1.13;0.93;;;;;20.70;100235.00;;;;2095922;28;20201;-54
2021/10/05 00:27:00;;;;;;;1.30;1.00;;;;;20.70;100238.00;;;;2095906;28;20277;-53
2021/10/05 00:28:00;;;;;;;1.10;1.00;;;;;20.70;100239.00;;;;2095827;28;20291;-53
2021/10/05 00:29:00;;;;;;;1.03;0.93;;;;;20.70;100235.00;;;;2095215;28;20212;-53
2021/10/05 00:30:02;;;;;;;1.20;1.10;;;;;20.70;100226.00;;;;2095860;28;20219;-53
2021/10/05 00:31:02;;;;;;;1.40;1.13;;;;;20.70;100233.00;;;;2094714;28;20688;-54
2021/10/05 00:32:04;;;;;;;1.20;1.10;;;;;20.70;100234.00;;;;2094894;28;20222;-56
2021/10/05 00:33:04;;;;;;;1.00;0.90;;;;;20.70;100233.00;;;;2095520;28;20212;-53
2021/10/05 00:34:04;;;;;;;1.00;0.90;;;;;20.70;100223.00;;;;2095558;28;20218;-56
2021/10/05 00:35:05;;;;;;;1.17;1.00;;;;;20.70;100223.00;;;;2095752;28;20212;-54
2021/10/05 00:36:06;;;;;;;1.03;0.93;;;;;20.70;100224.00;;;;2088951;28;20212;-54
2021/10/05 00:37:06;;;;;;;1.17;1.07;;;;;20.70;100219.00;;;;2086667;28;20451;-54
2021/10/05 00:38:07;;;;;;;1.10;1.00;;;;;20.70;100217.00;;;;2090916;28;20457;-55
2021/10/05 00:39:08;;;;;;;1.67;1.10;;;;;20.70;100221.00;;;;2089803;28;20224;-54
2021/10/05 00:40:09;;;;;;;1.08;0.80;;;;;20.70;100217.00;;;;2087468;28;20217;-54
2021/10/05 00:41:10;;;;;;;1.30;1.20;;;;;20.70;100220.00;;;;2085863;28;20251;-54
2021/10/05 00:42:10;;;;;;;1.20;0.97;;;;;20.70;100210.00;;;;2087435;28;20201;-54
2021/10/05 00:43:10;;;;;;;1.20;1.00;;;;;20.70;100208.00;;;;2087537;28;20215;-54
2021/10/05 00:44:11;;;;;;;0.93;0.83;;;;;20.70;100210.00;;;;2087232;28;20213;-54
2021/10/05 00:45:11;;;;;;;1.40;1.23;;;;;20.70;100213.00;;;;2087354;28;20248;-54
2021/10/05 00:46:12;;;;;;;1.30;1.10;;;;;20.70;100217.00;;;;2087355;28;20212;-54
2021/10/05 00:47:14;;;;;;;1.30;1.20;;;;;20.70;100213.00;;;;2084952;28;20219;-54
2021/10/05 00:48:14;;;;;;;1.27;1.10;;;;;20.70;100217.00;;;;2087325;28;20304;-54
2021/10/05 00:49:14;;;;;;;0.90;0.80;;;;;20.70;100206.00;;;;2087081;28;20720;-54
2021/10/05 00:50:16;;;;;;;1.20;0.90;;;;;20.70;100213.00;;;;2087305;28;20598;-55
2021/10/05 00:51:17;;;;;;;1.17;1.08;;;;;20.70;100202.00;;;;2086874;28;20681;-53
2021/10/05 00:52:17;;;;;;;1.00;0.90;;;;;20.70;100207.00;;;;2086787;28;20197;-54
2021/10/05 00:53:18;;;;;;;1.40;1.13;;;;;20.70;100203.00;;;;2086597;28;20217;-53
2021/10/05 00:54:18;;;;;;;1.10;1.00;;;;;20.70;100199.00;;;;2086670;28;20209;-54
2021/10/05 00:55:18;;;;;;;1.07;0.93;;;;;20.70;100197.00;;;;2087457;28;20291;-54
2021/10/05 00:56:20;;;;;;;1.10;1.00;;;;;20.70;100203.00;;;;2086775;28;20224;-54
2021/10/05 00:57:20;;;;;;;1.05;0.93;;;;;20.70;100200.00;;;;2087616;28;20225;-54
2021/10/05 00:58:21;;;;;;;1.17;0.90;;;;;20.70;100192.00;;;;2087626;28;20296;-54
2021/10/05 00:59:21;;;;;;;0.90;0.73;;;;;20.60;100198.00;;;;2086778;28;20208;-53
2021/10/05 01:00:21;;;;;;;1.00;0.90;;;;;20.70;100194.00;;;;2087597;28;20720;-54
2021/10/05 01:01:22;;;;;;;0.80;0.80;;;;;20.70;100195.00;;;;2087283;28;20578;-53
2021/10/05 01:02:22;;;;;;;1.13;1.03;;;;;20.70;100195.00;;;;2087339;28;20205;-55
2021/10/05 01:03:22;;;;;;;1.40;1.10;;;;;20.70;100192.00;;;;2087599;28;20204;-55
2021/10/05 01:04:23;;;;;;;1.47;1.00;;;;;20.70;100198.00;;;;2089060;28;20296;-54
2021/10/05 01:05:23;;;;;;;0.80;0.80;;;;;20.70;100193.00;;;;2089208;28;20209;-53
2021/10/05 01:06:23;;;;;;;0.93;0.87;;;;;20.70;100188.00;;;;2089630;28;20485;-53
2021/10/05 01:07:24;;;;;;;1.10;1.00;;;;;20.70;100185.00;;;;2092812;28;20205;-54
2021/10/05 01:08:24;;;;;;;1.20;1.07;;;;;20.70;100181.00;;;;2092605;28;20266;-53
2021/10/05 01:09:25;;;;;;;1.10;0.80;;;;;20.70;100178.00;;;;2090790;28;20216;-54
2021/10/05 01:10:25;;;;;;;1.10;1.00;;;;;20.70;100188.00;;;;2088262;28;20638;-54
2021/10/05 01:11:25;;;;;;;1.00;0.90;;;;;20.70;100180.00;;;;2088496;28;20697;-54
2021/10/05 01:12:26;;;;;;;1.00;0.90;;;;;20.70;100184.00;;;;2088995;28;20215;-54
2021/10/05 01:13:27;;;;;;;0.97;0.70;;;;;20.70;100183.00;;;;2089017;28;20686;-53
2021/10/05 01:14:27;;;;;;;1.35;1.20;;;;;20.70;100177.00;;;;2088223;28;20208;-54
2021/10/05 01:15:29;;;;;;;1.03;0.70;;;;;20.70;100175.00;;;;2087045;28;20223;-54
2021/10/05 01:16:29;;;;;;;1.00;0.90;;;;;20.70;100169.00;;;;2088807;28;20212;-53
2021/10/05 01:17:30;;;;;;;1.83;1.03;;;;;20.70;100170.00;;;;2088849;28;20210;-54
2021/10/05 01:18:31;;;;;;;1.10;1.00;;;;;20.70;100171.00;;;;2089056;28;20294;-53
2021/10/05 01:19:31;;;;;;;1.03;0.93;;;;;20.70;100172.00;;;;2088670;28;20574;-54
2021/10/05 01:20:49;;;;;;;1.40;1.03;;;;;20.70;100179.00;;;;2088173;28;20227;-53
2021/10/05 01:21:49;;;;;;;1.10;0.90;;;;;20.70;100172.00;;;;2079700;28;20299;-54
2021/10/05 01:22:49;;;;;;;1.00;0.90;;;;;20.70;100179.00;;;;2081488;28;20590;-53
2021/10/05 01:23:50;;;;;;;1.00;0.90;;;;;20.70;100171.00;;;;2089021;28;20581;-53
2021/10/05 01:24:50;;;;;;;1.20;0.90;;;;;20.70;100175.00;;;;2089021;28;20216;-54
2021/10/05 01:25:51;;;;;;;1.70;1.07;;;;;20.70;100170.00;;;;2088335;28;20585;-55
2021/10/05 01:26:53;;;;;;;1.30;0.90;;;;;20.70;100176.00;;;;2088809;28;20640;-53
2021/10/05 01:27:53;;;;;;;1.10;0.90;;;;;20.70;100169.00;;;;2088950;28;20334;-54
2021/10/05 01:28:53;;;;;;;0.93;0.83;;;;;20.70;100165.00;;;;2088388;28;20220;-54
2021/10/05 01:29:55;;;;;;;1.00;0.83;;;;;20.70;100170.00;;;;2088741;28;20228;-54
2021/10/05 01:30:55;;;;;;;1.48;1.02;;;;;20.70;100158.00;;;;2088915;28;20221;-55
2021/10/05 01:31:57;;;;;;;1.10;0.90;;;;;20.70;100159.00;;;;2088095;28;20220;-54
2021/10/05 01:32:57;;;;;;;1.00;0.80;;;;;20.70;100159.00;;;;2088222;28;20224;-53
2021/10/05 01:33:58;;;;;;;0.90;0.70;;;;;20.70;100153.00;;;;2088799;28;20855;-54
2021/10/05 01:34:59;;;;;;;1.10;0.87;;;;;20.70;100155.00;;;;2088615;28;20689;-54
2021/10/05 01:35:59;;;;;;;1.20;1.00;;;;;20.70;100154.00;;;;2088771;28;20451;-54
2021/10/05 01:36:59;;;;;;;0.80;0.73;;;;;20.70;100154.00;;;;2092037;28;20200;-54
2021/10/05 01:38:00;;;;;;;1.17;1.00;;;;;20.70;100153.00;;;;2091828;28;20744;-54
2021/10/05 01:39:04;;;;;;;1.07;0.73;;;;;20.70;100149.00;;;;2090967;28;20213;-53
2021/10/05 01:40:05;;;;;;;1.45;0.80;;;;;20.60;100142.00;;;;2088882;28;20662;-53
2021/10/05 01:41:06;;;;;;;1.30;0.80;;;;;20.70;100139.00;;;;2093243;28;20227;-53
2021/10/05 01:42:12;;;;;;;1.10;1.00;;;;;20.70;100140.00;;;;2097023;28;20212;-54
2021/10/05 01:43:12;;;;;;;1.00;0.90;;;;;20.70;100135.00;;;;2096915;28;20580;-55
2021/10/05 01:44:13;;;;;;;1.10;1.00;;;;;20.70;100145.00;;;;2096995;28;20219;-56
2021/10/05 01:45:13;;;;;;;1.10;0.90;;;;;20.70;100133.00;;;;2096836;28;20279;-54
2021/10/05 01:46:14;;;;;;;0.97;0.87;;;;;20.70;100129.00;;;;2096937;28;20693;-54
2021/10/05 01:47:14;;;;;;;1.10;0.97;;;;;20.70;100127.00;;;;2096968;28;20737;-54
2021/10/05 01:48:14;;;;;;;0.90;0.67;;;;;20.70;100128.00;;;;2096985;28;20456;-56
2021/10/05 01:49:18;;;;;;;0.93;0.90;;;;;20.70;100121.00;;;;2087647;28;20217;-54
2021/10/05 01:50:19;;;;;;;0.80;0.80;;;;;20.60;100125.00;;;;2081823;28;20221;-54
2021/10/05 01:51:19;;;;;;;1.20;0.90;;;;;20.70;100116.00;;;;2087809;28;20209;-54
2021/10/05 01:52:19;;;;;;;1.07;0.97;;;;;20.70;100117.00;;;;2088827;28;20209;-54
2021/10/05 01:53:20;;;;;;;0.90;0.77;;;;;20.70;100115.00;;;;2079990;28;20205;-54
2021/10/05 01:54:20;;;;;;;1.30;1.00;;;;;20.60;100114.00;;;;2104175;28;20215;-54
2021/10/05 01:55:21;;;;;;;1.00;0.90;;;;;20.70;100109.00;;;;2103099;28;20299;-54
2021/10/05 01:56:21;;;;;;;0.80;0.77;;;;;20.60;100114.00;;;;2095600;28;20212;-54
2021/10/05 01:57:21;;;;;;;1.00;0.90;;;;;20.60;100112.00;;;;2097058;28;20689;-54
2021/10/05 01:58:22;;;;;;;1.13;1.03;;;;;20.70;100111.00;;;;2096997;28;20589;-55
2021/10/05 01:59:22;;;;;;;0.90;0.80;;;;;20.70;100112.00;;;;2096365;28;20212;-54
2021/10/05 02:00:23;;;;;;;0.80;0.80;;;;;20.60;100108.00;;;;2096606;28;20385;-53
2021/10/05 02:01:23;;;;;;;1.00;0.80;;;;;20.70;100104.00;;;;2097009;28;20238;-54
2021/10/05 02:02:24;;;;;;;1.00;0.87;;;;;20.60;100106.00;;;;2096775;28;20218;-54
2021/10/05 02:03:25;;;;;;;1.02;0.77;;;;;20.70;100103.00;;;;2096803;28;20576;-55
2021/10/05 02:04:25;;;;;;;1.00;0.80;;;;;20.70;100108.00;;;;2096185;28;20216;-54
2021/10/05 02:05:25;;;;;;;0.67;0.63;;;;;20.70;100105.00;;;;2096464;28;20291;-54
2021/10/05 02:06:26;;;;;;;1.10;1.00;;;;;20.70;100104.00;;;;2096068;28;20234;-54
2021/10/05 02:07:26;;;;;;;0.90;0.90;;;;;20.60;100108.00;;;;2091831;28;20208;-53
2021/10/05 02:08:27;;;;;;;0.90;0.77;;;;;20.60;100104.00;;;;2092599;28;20205;-54
2021/10/05 02:09:27;;;;;;;0.83;0.80;;;;;20.70;100096.00;;;;2091230;28;20217;-53
2021/10/05 02:10:28;;;;;;;1.13;0.80;;;;;20.60;100095.00;;;;2087711;28;20410;-54
2021/10/05 02:11:28;;;;;;;2.40;0.80;;;;;20.70;100097.00;;;;2088602;28;20224;-54
2021/10/05 02:12:29;;;;;;;0.90;0.77;;;;;20.60;100092.00;;;;2088502;28;20216;-54
2021/10/05 02:13:30;;;;;;;0.80;0.80;;;;;20.70;100089.00;;;;2089423;28;20220;-54
2021/10/05 02:14:30;;;;;;;1.10;1.00;;;;;20.60;100087.00;;;;2096768;28;20211;-54
2021/10/05 02:15:31;;;;;;;0.80;0.77;;;;;20.60;100096.00;;;;2095796;28;20212;-53
2021/10/05 02:16:31;;;;;;;0.90;0.80;;;;;20.60;100086.00;;;;2096929;28;20205;-54
2021/10/05 02:17:32;;;;;;;0.67;0.67;;;;;20.60;100094.00;;;;2096804;28;20262;-53
2021/10/05 02:18:32;;;;;;;0.63;0.60;;;;;20.60;100089.00;;;;2095340;28;20669;-54
2021/10/05 02:19:33;;;;;;;0.87;0.80;;;;;20.70;100075.00;;;;2087877;28;21020;-53
2021/10/05 02:20:33;;;;;;;0.80;0.70;;;;;20.70;100079.00;;;;2087670;28;20861;-54
2021/10/05 02:21:34;;;;;;;0.93;0.70;;;;;20.70;100077.00;;;;2084899;28;20570;-54
2021/10/05 02:22:35;;;;;;;1.00;0.83;;;;;20.70;100082.00;;;;2087884;28;20842;-53
2021/10/05 02:24:56;;;;;;;1.10;1.00;;;;;20.60;100078.00;;;;2092360;28;20208;-54
2021/10/05 02:25:56;;;;;;;1.10;1.00;;;;;20.60;100076.00;;;;2094730;28;20319;-54
2021/10/05 02:26:56;;;;;;;0.73;0.70;;;;;20.60;100069.00;;;;2087917;28;20236;-54
2021/10/05 02:27:57;;;;;;;1.13;1.00;;;;;20.70;100068.00;;;;2088099;28;20275;-54
2021/10/05 02:28:57;;;;;;;0.73;0.63;;;;;20.60;100069.00;;;;2086102;28;20213;-53
2021/10/05 02:29:58;;;;;;;0.70;0.70;;;;;20.60;100069.00;;;;2087428;28;20656;-54
2021/10/05 02:30:58;;;;;;;1.13;0.87;;;;;20.60;100060.00;;;;2086997;28;20213;-54
2021/10/05 02:31:59;;;;;;;0.70;0.63;;;;;20.60;100061.00;;;;2083954;28;20627;-54
2021/10/05 02:32:59;;;;;;;0.80;0.80;;;;;20.60;100061.00;;;;2087109;28;20598;-53
2021/10/05 02:33:59;;;;;;;1.00;0.90;;;;;20.60;100058.00;;;;2087727;28;20213;-54
2021/10/05 02:35:00;;;;;;;1.30;0.83;;;;;20.70;100061.00;;;;2092595;28;20257;-53
2021/10/05 02:36:00;;;;;;;1.00;0.83;;;;;20.60;100057.00;;;;2096623;28;20227;-54
2021/10/05 02:37:01;;;;;;;0.70;0.60;;;;;20.70;100061.00;;;;2089897;28;20632;-54
2021/10/05 02:38:01;;;;;;;0.80;0.77;;;;;20.60;100052.00;;;;2091340;28;20212;-54
2021/10/05 02:39:02;;;;;;;0.80;0.80;;;;;20.70;100059.00;;;;2090361;28;20982;-55
2021/10/05 02:40:05;;;;;;;0.95;0.80;;;;;20.60;100051.00;;;;2088508;28;20209;-54
2021/10/05 02:41:05;;;;;;;1.38;0.80;;;;;20.70;100050.00;;;;2088113;28;20342;-54
2021/10/05 02:42:06;;;;;;;0.80;0.80;;;;;20.60;100045.00;;;;2088339;28;20343;-54
2021/10/05 02:43:06;;;;;;;0.83;0.80;;;;;20.60;100052.00;;;;2088398;28;20296;-54
2021/10/05 02:44:07;;;;;;;0.77;0.77;;;;;20.60;100048.00;;;;2088380;28;20212;-54
2021/10/05 02:45:08;;;;;;;0.80;0.77;;;;;20.60;100046.00;;;;2088253;28;20215;-54
2021/10/05 02:46:08;;;;;;;0.87;0.63;;;;;20.60;100043.00;;;;2088167;28;20239;-53
2021/10/05 02:47:09;;;;;;;0.70;0.63;;;;;20.60;100042.00;;;;2091909;28;20458;-54
2021/10/05 02:48:09;;;;;;;0.70;0.60;;;;;20.60;100039.00;;;;2096618;28;20212;-55
2021/10/05 02:49:10;;;;;;;1.00;0.80;;;;;20.60;100043.00;;;;2096109;28;20215;-54
2021/10/05 02:50:10;;;;;;;1.13;0.80;;;;;20.60;100042.00;;;;2096485;28;20219;-53
2021/10/05 02:51:10;;;;;;;1.00;0.70;;;;;20.60;100033.00;;;;2096246;28;20200;-53
2021/10/05 02:52:15;;;;;;;0.80;0.70;;;;;20.60;100037.00;;;;2096429;28;20401;-53
2021/10/05 02:53:15;;;;;;;1.10;1.00;;;;;20.60;100041.00;;;;2096484;28;20212;-54
2021/10/05 02:54:16;;;;;;;1.90;0.93;;;;;20.60;100037.00;;;;2096531;28;20479;-54
2021/10/05 02:55:16;;;;;;;0.70;0.70;;;;;20.60;100034.00;;;;2096350;28;20211;-54
2021/10/05 02:56:17;;;;;;;0.80;0.70;;;;;20.60;100032.00;;;;2096551;28;20204;-54
2021/10/05 02:57:18;;;;;;;0.70;0.70;;;;;20.60;100026.00;;;;2095541;28;20742;-53
2021/10/05 02:58:19;;;;;;;0.77;0.68;;;;;20.60;100031.00;;;;2096557;28;20247;-54
2021/10/05 02:59:19;;;;;;;1.37;0.80;;;;;20.60;100023.00;;;;2095939;28;20212;-54
2021/10/05 03:00:19;;;;;;;1.00;0.90;;;;;20.60;100027.00;;;;2093083;28;20212;-54
2021/10/05 03:01:20;;;;;;;1.10;0.70;;;;;20.60;100026.00;;;;2094354;28;20216;-53
2021/10/05 03:02:20;;;;;;;1.17;1.10;;;;;20.60;100024.00;;;;2096413;28;20240;-54
2021/10/05 03:03:21;;;;;;;0.70;0.70;;;;;20.60;100023.00;;;;2095604;28;20212;-53
2021/10/05 03:04:21;;;;;;;0.93;0.93;;;;;20.60;100015.00;;;;2095822;28;20259;-54
2021/10/05 03:05:21;;;;;;;0.83;0.60;;;;;20.60;100017.00;;;;2095761;28;20215;-54
2021/10/05 03:06:22;;;;;;;1.00;0.90;;;;;20.60;100016.00;;;;2094409;28;20213;-54
2021/10/05 03:07:22;;;;;;;0.70;0.60;;;;;20.60;100017.00;;;;2090857;28;20220;-53
2021/10/05 03:08:25;;;;;;;0.70;0.70;;;;;20.60;100010.00;;;;2090840;28;20215;-54
2021/10/05 03:09:26;;;;;;;1.00;0.80;;;;;20.60;100022.00;;;;2088994;28;20216;-54
2021/10/05 03:10:26;;;;;;;0.73;0.70;;;;;20.60;100008.00;;;;2095259;28;20212;-54
2021/10/05 03:11:26;;;;;;;0.90;0.80;;;;;20.60;100016.00;;;;2096402;28;20242;-53
2021/10/05 03:12:27;;;;;;;0.87;0.80;;;;;20.60;100008.00;;;;2096514;28;20663;-53
2021/10/05 03:13:32;;;;;;;1.10;1.00;;;;;20.60;100007.00;;;;2091783;28;20299;-53
2021/10/05 03:14:33;;;;;;;0.85;0.65;;;;;20.60;100002.00;;;;2088219;28;20208;-54
2021/10/05 03:15:33;;;;;;;1.07;0.70;;;;;20.60;99995.00;;;;2088074;28;20654;-53
2021/10/05 03:16:34;;;;;;;0.80;0.70;;;;;20.60;99994.00;;;;2088251;28;20216;-53
2021/10/05 03:17:34;;;;;;;1.03;0.63;;;;;20.60;99999.00;;;;2088034;28;20609;-54
2021/10/05 03:18:34;;;;;;;1.00;0.80;;;;;20.60;99999.00;;;;2088016;28;20221;-54
2021/10/05 03:19:35;;;;;;;1.03;0.90;;;;;20.60;100002.00;;;;2087578;28;20359;-53
2021/10/05 03:20:35;;;;;;;1.10;0.83;;;;;20.60;99996.00;;;;2087062;28;20709;-54
2021/10/05 03:21:36;;;;;;;0.80;0.70;;;;;20.60;100003.00;;;;2087426;28;20713;-54
2021/10/05 03:22:36;;;;;;;0.70;0.60;;;;;20.60;99991.00;;;;2088203;28;20221;-55
2021/10/05 03:23:38;;;;;;;0.70;0.70;;;;;20.60;99996.00;;;;2087565;28;20831;-54
2021/10/05 03:24:40;;;;;;;1.00;0.90;;;;;20.60;99992.00;;;;2087933;28;20212;-54
2021/10/05 03:25:40;;;;;;;0.80;0.60;;;;;20.60;99991.00;;;;2087996;28;20216;-53
2021/10/05 03:26:40;;;;;;;0.80;0.70;;;;;20.60;99995.00;;;;2087888;28;20343;-54
2021/10/05 03:27:40;;;;;;;0.77;0.70;;;;;20.60;99988.00;;;;2088025;28;20216;-54
2021/10/05 03:28:41;;;;;;;1.00;0.70;;;;;20.60;99997.00;;;;2087852;28;20228;-54
2021/10/05 03:29:41;;;;;;;1.10;0.80;;;;;20.60;99996.00;;;;2087535;28;20235;-53
2021/10/05 03:30:41;;;;;;;1.07;0.70;;;;;20.60;99989.00;;;;2087721;28;20236;-54
2021/10/05 03:31:42;;;;;;;1.37;0.70;;;;;20.60;100000.00;;;;2087846;28;20213;-53
2021/10/05 03:32:43;;;;;;;0.97;0.80;;;;;20.60;99995.00;;;;2089730;28;20220;-53
2021/10/05 03:33:43;;;;;;;0.93;0.90;;;;;20.60;99987.00;;;;2095545;28;20207;-54
2021/10/05 03:34:44;;;;;;;0.70;0.60;;;;;20.60;99989.00;;;;2096203;28;20215;-54
2021/10/05 03:35:44;;;;;;;0.93;0.80;;;;;20.60;99984.00;;;;2095934;28;20212;-53
2021/10/05 03:36:45;;;;;;;0.83;0.70;;;;;20.60;99979.00;;;;2093819;28;20203;-54
2021/10/05 03:37:45;;;;;;;1.17;0.90;;;;;20.60;99985.00;;;;2089782;28;20222;-53
2021/10/05 03:38:46;;;;;;;0.80;0.70;;;;;20.60;99977.00;;;;2089876;28;20212;-54
2021/10/05 03:39:46;;;;;;;0.97;0.60;;;;;20.60;99980.00;;;;2087727;28;20240;-53
2021/10/05 03:40:48;;;;;;;0.90;0.70;;;;;20.60;99977.00;;;;2087848;28;20573;-53
2021/10/05 03:41:48;;;;;;;1.10;0.80;;;;;20.60;99976.00;;;;2087790;28;20217;-53
2021/10/05 03:42:48;;;;;;;0.70;0.60;;;;;20.60;99975.00;;;;2088021;28;20225;-54
2021/10/05 03:43:49;;;;;;;0.83;0.63;;;;;20.60;99972.00;;;;2087936;28;20221;-54
2021/10/05 03:44:49;;;;;;;0.90;0.80;;;;;20.60;99968.00;;;;2088032;28;20209;-54
2021/10/05 03:45:50;;;;;;;1.20;0.70;;;;;20.60;99972.00;;;;2088475;28;20589;-54
2021/10/05 03:46:51;;;;;;;0.77;0.70;;;;;20.60;99968.00;;;;2095852;28;20227;-53
2021/10/05 03:47:51;;;;;;;0.70;0.63;;;;;20.60;99966.00;;;;2096043;28;20203;-54
2021/10/05 03:48:52;;;;;;;0.90;0.70;;;;;20.60;99969.00;;;;2095868;28;20295;-54
2021/10/05 03:49:52;;;;;;;1.03;0.70;;;;;20.60;99960.00;;;;2096002;28;20208;-53
2021/10/05 03:50:53;;;;;;;0.80;0.60;;;;;20.60;99971.00;;;;2096211;28;20211;-53
2021/10/05 03:51:53;;;;;;;0.80;0.70;;;;;20.60;99957.00;;;;2092536;28;20217;-54
2021/10/05 03:52:53;;;;;;;0.80;0.80;;;;;20.60;99952.00;;;;2087857;28;20295;-54
2021/10/05 03:53:54;;;;;;;0.70;0.70;;;;;20.60;99964.00;;;;2087788;28;20209;-54
2021/10/05 03:54:54;;;;;;;0.80;0.70;;;;;20.60;99963.00;;;;2087902;28;20219;-54
2021/10/05 03:55:55;;;;;;;0.80;0.70;;;;;20.60;99959.00;;;;2087632;28;20216;-54
2021/10/05 03:56:56;;;;;;;0.90;0.70;;;;;20.60;99953.00;;;;2089787;28;20649;-54
2021/10/05 03:57:56;;;;;;;0.80;0.73;;;;;20.60;99961.00;;;;2094885;28;20216;-54
2021/10/05 03:58:57;;;;;;;0.87;0.80;;;;;20.60;99956.00;;;;2095616;28;20220;-54
2021/10/05 03:59:57;;;;;;;0.77;0.53;;;;;20.60;99953.00;;;;2088880;28;20209;-53
2021/10/05 04:00:57;;;;;;;0.70;0.67;;;;;20.60;99958.00;;;;2087195;28;20266;-54
2021/10/05 04:01:58;;;;;;;0.80;0.70;;;;;20.60;99954.00;;;;2087622;28;20236;-55
2021/10/05 04:02:58;;;;;;;0.70;0.60;;;;;20.60;99953.00;;;;2087840;28;20720;-54
2021/10/05 04:03:59;;;;;;;1.53;0.60;;;;;20.60;99953.00;;;;2087611;28;20694;-53
2021/10/05 04:05:00;;;;;;;1.73;0.80;;;;;20.60;99952.00;;;;2087765;28;20485;-54
2021/10/05 04:06:00;;;;;;;0.70;0.70;;;;;20.60;99942.00;;;;2085944;28;20213;-54
2021/10/05 04:07:01;;;;;;;0.80;0.80;;;;;20.60;99953.00;;;;2090401;28;20217;-53
2021/10/05 04:08:01;;;;;;;0.80;0.60;;;;;20.60;99942.00;;;;2090316;28;20224;-53
2021/10/05 04:09:08;;;;;;;0.70;0.70;;;;;20.60;99949.00;;;;2089300;28;20224;-54
2021/10/05 04:10:08;;;;;;;1.02;0.90;;;;;20.60;99947.00;;;;2088048;28;20479;-53
2021/10/05 04:11:09;;;;;;;0.70;0.50;;;;;20.60;99944.00;;;;2095328;28;20208;-55
2021/10/05 04:12:10;;;;;;;0.70;0.60;;;;;20.60;99940.00;;;;2095916;28;20269;-53
2021/10/05 04:13:10;;;;;;;0.82;0.75;;;;;20.60;99940.00;;;;2095964;28;20269;-54
2021/10/05 04:14:10;;;;;;;1.00;0.90;;;;;20.60;99946.00;;;;2095752;28;20238;-54
2021/10/05 04:15:11;;;;;;;0.80;0.70;;;;;20.60;99936.00;;;;2088399;28;20213;-53
2021/10/05 04:16:11;;;;;;;1.10;0.80;;;;;20.60;99926.00;;;;2087371;28;20213;-54
2021/10/05 04:17:11;;;;;;;0.77;0.70;;;;;20.60;99937.00;;;;2087534;28;20232;-54
2021/10/05 04:18:12;;;;;;;0.80;0.70;;;;;20.60;99939.00;;;;2086971;28;20236;-54
2021/10/05 04:19:12;;;;;;;0.90;0.70;;;;;20.60;99934.00;;;;2087254;28;20554;-55
2021/10/05 04:20:13;;;;;;;1.00;0.83;;;;;20.60;99937.00;;;;2087474;28;20320;-54
2021/10/05 04:21:14;;;;;;;0.90;0.80;;;;;20.60;99930.00;;;;2093683;28;20288;-54
2021/10/05 04:22:14;;;;;;;1.00;0.60;;;;;20.60;99939.00;;;;2095577;28;20201;-54
2021/10/05 04:23:14;;;;;;;0.80;0.70;;;;;20.60;99934.00;;;;2095859;28;20204;-54
2021/10/05 04:24:14;;;;;;;1.10;0.87;;;;;20.60;99935.00;;;;2095679;28;20689;-55
2021/10/05 04:25:15;;;;;;;0.90;0.70;;;;;20.60;99935.00;;;;2094932;28;20719;-54
2021/10/05 04:26:15;;;;;;;0.80;0.70;;;;;20.60;99926.00;;;;2095597;28;20979;-55
2021/10/05 04:27:16;;;;;;;0.90;0.60;;;;;20.60;99930.00;;;;2095704;28;20212;-54
2021/10/05 04:28:16;;;;;;;0.63;0.60;;;;;20.60;99924.00;;;;2095978;28;20209;-55
2021/10/05 04:29:16;;;;;;;0.73;0.70;;;;;20.60;99929.00;;;;2094572;28;20204;-55
2021/10/05 04:30:17;;;;;;;0.73;0.60;;;;;20.60;99927.00;;;;2094927;28;20243;-55
2021/10/05 04:31:17;;;;;;;1.00;0.67;;;;;20.60;99924.00;;;;2095454;28;20284;-54
2021/10/05 04:32:17;;;;;;;0.70;0.60;;;;;20.60;99922.00;;;;2095389;28;20226;-55
2021/10/05 04:33:18;;;;;;;0.87;0.50;;;;;20.60;99926.00;;;;2095660;28;20628;-54
2021/10/05 04:34:18;;;;;;;0.97;0.63;;;;;20.60;99913.00;;;;2087707;28;20213;-54
2021/10/05 04:35:18;;;;;;;0.70;0.60;;;;;20.60;99879.00;;;;2087521;28;20240;-55
2021/10/05 04:36:19;;;;;;;0.80;0.70;;;;;20.60;99917.00;;;;2088282;28;20644;-54
2021/10/05 04:37:20;;;;;;;0.80;0.70;;;;;20.60;99916.00;;;;2083218;28;20228;-54
2021/10/05 04:38:20;;;;;;;0.80;0.70;;;;;20.60;99913.00;;;;2090010;28;20224;-54
2021/10/05 04:39:21;;;;;;;0.63;0.60;;;;;20.60;99907.00;;;;2091259;28;20216;-54
2021/10/05 04:40:21;;;;;;;0.70;0.60;;;;;20.60;99909.00;;;;2095646;28;20208;-54
2021/10/05 04:41:22;;;;;;;0.80;0.70;;;;;20.60;99907.00;;;;2093917;28;20299;-54
2021/10/05 04:42:22;;;;;;;0.87;0.63;;;;;20.60;99909.00;;;;2095518;28;20208;-54
2021/10/05 04:43:23;;;;;;;0.77;0.63;;;;;20.60;99910.00;;;;2095636;28;20235;-54
2021/10/05 04:44:24;;;;;;;0.70;0.60;;;;;20.60;99908.00;;;;2095744;28;20212;-54
2021/10/05 04:45:24;;;;;;;0.80;0.80;;;;;20.60;99909.00;;;;2095640;28;20615;-54
2021/10/05 04:46:25;;;;;;;0.70;0.70;;;;;20.60;99905.00;;;;2095467;28;20222;-54
2021/10/05 04:47:25;;;;;;;0.70;0.60;;;;;20.60;99904.00;;;;2094495;28;20243;-54
2021/10/05 04:48:25;;;;;;;0.70;0.57;;;;;20.60;99903.00;;;;2095629;28;20208;-54
2021/10/05 04:49:26;;;;;;;1.53;0.70;;;;;20.60;99911.00;;;;2095429;28;20262;-55
2021/10/05 04:50:26;;;;;;;0.90;0.80;;;;;20.60;99900.00;;;;2095238;28;20212;-55
2021/10/05 04:51:27;;;;;;;0.80;0.67;;;;;20.60;99909.00;;;;2095701;28;20299;-54
2021/10/05 04:52:27;;;;;;;0.70;0.60;;;;;20.60;99900.00;;;;2095395;28;20216;-54
2021/10/05 04:53:27;;;;;;;0.70;0.60;;;;;20.60;99889.00;;;;2095627;28;20222;-54
2021/10/05 04:54:28;;;;;;;0.73;0.70;;;;;20.60;99886.00;;;;2094885;28;20224;-54
2021/10/05 04:55:28;;;;;;;0.70;0.60;;;;;20.60;99898.00;;;;2094900;28;20223;-54
2021/10/05 04:56:29;;;;;;;1.20;0.83;;;;;20.60;99899.00;;;;2095564;28;20220;-54
2021/10/05 04:57:29;;;;;;;0.90;0.70;;;;;20.60;99895.00;;;;2095755;28;20346;-54
2021/10/05 04:58:29;;;;;;;0.80;0.80;;;;;20.60;99893.00;;;;2094807;28;20720;-55
2021/10/05 04:59:32;;;;;;;0.80;0.60;;;;;20.60;99880.00;;;;2095156;28;20695;-54
2021/10/05 05:00:32;;;;;;;0.80;0.60;;;;;20.60;99886.00;;;;2095392;28;20212;-54
2021/10/05 05:01:32;;;;;;;0.97;0.70;;;;;20.60;99878.00;;;;2094639;28;20580;-54
2021/10/05 05:02:33;;;;;;;0.80;0.70;;;;;20.60;99878.00;;;;2092088;28;20584;-54